Aérodrome :
LOGIN :

S'inscrire | Disclaimer

   EN    FR    IT 

 










Légende :    VFR   VFR Marginal   IFR   IFR Intensif   IFR Très Intensif
Visi : 
Plafond : 
>= 8 km
>= 3000ft
5 à 8 km
1000 à 3000 ft
1500m à 5 km
500 à 1000 ft
800 à 1500m
200 à 500 ft
< 800m
< 200 ft
Symboles :   Orages  Brouillard  Fortes neiges  Fortes précipitations  Vent > 20 kt
SIGMETs :   Divers  Orages  Givrage  Turbulence  Onde Orograph.  Cendres Volcan.






- Altitude de l'aérodrome : 1260 ft
- Code IATA : LDE


LFBT - Tarbes / Ossun

DERNIER METAR :
  • 272130Z AUTO 26008KT 230V290 7000 -RA OVC007/// ///TCU 10/09 Q1021 TEMPO 2500 RA BECMG BKN012

METARs EXPIRÉS :
  • 272100Z AUTO 27012KT 9999 OVC007/// ///TCU 10/09 Q1021 BECMG BKN012 OVC030
  • 272030Z AUTO 28015KT 7000 RA BKN007 OVC011 10/10 Q1021 BECMG 24005KT NSW BKN012 OVC030
  • 272000Z AUTO 28014KT 4600 RA BR BKN009 BKN013 OVC018 11/10 Q1021 TEMPO 24018G30KT BECMG 9999 -RA BKN012 OVC030
  • 271930Z AUTO 25015KT 220V280 6000 -RA BKN010/// BKN017/// BKN023/// ///TCU 11/10 Q1020 TEMPO 2500 RA BECMG 24005KT BKN012 OVC030
  • 271900Z AUTO 25015KT 5000 -RA BR BKN008/// BKN012/// BKN022/// ///TCU 11/10 Q1020 TEMPO 24018G30KT 2500 RA OVC006

TAF AMD TAF LFBT
Valide du 27 à 21h jusqu'au 28 à 18h UTC


272112Z 2721/2818 27012KT 9999 -RA BKN012
TEMPO 2721/2723 2500 RA OVC006
BECMG 2721/2723 24005KT
BECMG 2805/2807 9999 NSW BKN012
BECMG 2809/2811 VRB03KT CAVOK
BECMG 2816/2818 09010KT



MET'MAP, la Météo Aéronautique d'un coup d'oeil ! - Copyright ORBIFLY Décembre 2007 - Disclaimer

ORBIFLY MET'MAP TEAM :

Programmation & Développement : Alexandra Zaïnal
Sur une idée originale de : Baudouin d'Aumeries
Assistance à la programmation : Marc-Olivier Méhu
Soutien technique & logistique : Manuel Goepfert

Contact : metmap@orbifly.com




SOURCES & CREDITS :

   NOAA